QFA434 YSSY-YMML
Flight info
| Callsign | QFA434 |
|---|---|
| Flight time | N/A |
| Altitude | 40000 |
| Route | KEVIN7/16L KEVIN DCT WOL H65 LEECE Q29 BOOIN |
| Aircraft | A332/H-SDE3GHIJ2J3J5M1RVWXY/LB2D1 |
Departure
| Time | 2026-05-05 06:36 |
|---|---|
| Airport | Sydney Kingsford Smith International Airport (YSSY) |
Arrival
| Time | N/A |
|---|---|
| Airport | Melbourne Airport (YMML) |
| Time | Latitude | Longitude | Altitude | Speed | Heading |
|---|---|---|---|---|---|
| 2026-05-05 06:13 | -33.93261 | 151.17689 | 34 ft | 0 kts | 85° |
| 2026-05-05 06:24 | -33.93261 | 151.17684 | 33 ft | 3 kts | 85° |
| 2026-05-05 06:24 | -33.93264 | 151.17652 | 34 ft | 4 kts | 85° |
| 2026-05-05 06:24 | -33.93266 | 151.17620 | 34 ft | 4 kts | 85° |
| 2026-05-05 06:24 | -33.93268 | 151.17590 | 34 ft | 4 kts | 91° |
| 2026-05-05 06:25 | -33.93261 | 151.17564 | 30 ft | 4 kts | 149° |
| 2026-05-05 06:25 | -33.93239 | 151.17555 | 32 ft | 1 kts | 168° |
| 2026-05-05 06:25 | -33.93238 | 151.17555 | 32 ft | 1 kts | 168° |
| 2026-05-05 06:29 | -33.93241 | 151.17556 | 32 ft | 1 kts | 168° |
| 2026-05-05 06:29 | -33.93257 | 151.17560 | 30 ft | 4 kts | 168° |
| 2026-05-05 06:29 | -33.93289 | 151.17568 | 33 ft | 8 kts | 167° |
| 2026-05-05 06:29 | -33.93365 | 151.17587 | 34 ft | 12 kts | 169° |
| 2026-05-05 06:30 | -33.93449 | 151.17585 | 34 ft | 12 kts | 182° |
| 2026-05-05 06:30 | -33.93533 | 151.17598 | 33 ft | 13 kts | 169° |
| 2026-05-05 06:30 | -33.93623 | 151.17623 | 33 ft | 12 kts | 162° |
| 2026-05-05 06:30 | -33.93693 | 151.17658 | 34 ft | 12 kts | 158° |
| 2026-05-05 06:31 | -33.93773 | 151.17690 | 33 ft | 13 kts | 162° |
| 2026-05-05 06:31 | -33.93850 | 151.17741 | 33 ft | 12 kts | 138° |
| 2026-05-05 06:31 | -33.93908 | 151.17778 | 33 ft | 9 kts | 163° |
| 2026-05-05 06:31 | -33.94037 | 151.17817 | 32 ft | 30 kts | 169° |
| 2026-05-05 06:32 | -33.94257 | 151.17871 | 34 ft | 32 kts | 168° |
| 2026-05-05 06:32 | -33.94462 | 151.17899 | 34 ft | 27 kts | 195° |
| 2026-05-05 06:32 | -33.94636 | 151.17910 | 34 ft | 25 kts | 167° |
| 2026-05-05 06:32 | -33.94799 | 151.17953 | 34 ft | 24 kts | 168° |
| 2026-05-05 06:33 | -33.94961 | 151.17995 | 34 ft | 24 kts | 167° |
| 2026-05-05 06:33 | -33.95070 | 151.18032 | 34 ft | 9 kts | 158° |
| 2026-05-05 06:33 | -33.95091 | 151.18053 | 34 ft | 2 kts | 112° |
| 2026-05-05 06:33 | -33.95093 | 151.18151 | 34 ft | 16 kts | 86° |
| 2026-05-05 06:34 | -33.95076 | 151.18260 | 34 ft | 12 kts | 76° |
| 2026-05-05 06:34 | -33.95055 | 151.18361 | 34 ft | 13 kts | 75° |
| 2026-05-05 06:34 | -33.95033 | 151.18474 | 33 ft | 15 kts | 78° |
| 2026-05-05 06:34 | -33.95010 | 151.18602 | 34 ft | 16 kts | 77° |
| 2026-05-05 06:35 | -33.94987 | 151.18743 | 31 ft | 17 kts | 94° |
| 2026-05-05 06:35 | -33.95044 | 151.18846 | 28 ft | 14 kts | 158° |
| 2026-05-05 06:35 | -33.95183 | 151.18883 | 27 ft | 44 kts | 168° |
| 2026-05-05 06:35 | -33.95706 | 151.19018 | 30 ft | 107 kts | 167° |
| 2026-05-05 06:36 | -33.96578 | 151.19207 | 222 ft | 139 kts | 165° |
| 2026-05-05 06:36 | -33.97580 | 151.19507 | 547 ft | 162 kts | 161° |
| 2026-05-05 06:36 | -33.98666 | 151.20045 | 1072 ft | 175 kts | 152° |
| 2026-05-05 06:36 | -33.99672 | 151.21021 | 1490 ft | 200 kts | 135° |
| 2026-05-05 06:37 | -34.00254 | 151.21981 | 1711 ft | 219 kts | 127° |